Time;durP1;ratioP1;P1;durP2;ratioP2;P2;SDS_P1;SDS_P2;PMS_P1;PMS_P2;Temp;Humidity;BMP_temperature;BMP_pressure;BME280_temperature;BME280_humidity;BME280_pressure;Samples;Min_cycle;Max_cycle;Signal;HPM_P1;HPM_P2
2023/06/15 00:00:24;;;;;;;6.10;3.92;;;;;;;22.61;47.45;100116.16;5092514;28;20048;-64
2023/06/15 00:02:53;;;;;;;6.60;3.60;;;;;;;22.60;47.51;100114.47;5092628;28;20076;-64
2023/06/15 00:05:22;;;;;;;7.93;4.13;;;;;;;22.59;47.37;100110.06;5091108;28;20447;-64
2023/06/15 00:07:50;;;;;;;7.32;3.90;;;;;;;22.58;47.61;100121.94;5092473;28;20048;-64
2023/06/15 00:10:18;;;;;;;7.03;3.78;;;;;;;22.57;47.69;100112.09;5092666;28;20044;-64
2023/06/15 00:12:47;;;;;;;5.45;3.60;;;;;;;22.56;47.52;100113.09;5092401;28;20052;-64
2023/06/15 00:15:17;;;;;;;6.13;3.53;;;;;;;22.55;47.55;100119.56;5092467;28;20052;-64
2023/06/15 00:17:46;;;;;;;7.05;3.50;;;;;;;22.54;47.58;100115.16;5092382;28;20052;-64
2023/06/15 00:20:15;;;;;;;5.40;3.20;;;;;;;22.53;48.03;100113.47;5091890;28;20090;-64
2023/06/15 00:22:45;;;;;;;7.22;3.78;;;;;;;22.52;47.77;100118.06;5092175;28;20048;-64
2023/06/15 00:25:14;;;;;;;7.47;4.10;;;;;;;22.51;47.76;100115.50;5092397;28;20117;-64
2023/06/15 00:27:43;;;;;;;5.93;3.65;;;;;;;22.50;48.11;100116.53;5092244;28;20123;-63
2023/06/15 00:30:13;;;;;;;6.25;3.40;;;;;;;22.50;47.95;100108.38;5092164;28;20127;-65
2023/06/15 00:32:42;;;;;;;6.45;3.90;;;;;;;22.48;48.03;100115.84;5092050;28;20136;-64
2023/06/15 00:35:11;;;;;;;8.55;3.90;;;;;;;22.48;47.72;100115.84;5092217;28;20059;-64
2023/06/15 00:37:39;;;;;;;5.90;3.60;;;;;;;22.46;47.76;100113.28;5090801;28;20044;-63
2023/06/15 00:40:11;;;;;;;7.82;3.70;;;;;;;22.45;48.02;100103.44;5092070;28;20048;-63
2023/06/15 00:42:39;;;;;;;9.00;3.83;;;;;;;22.45;48.01;100110.75;5090860;28;20546;-62
2023/06/15 00:45:08;;;;;;;7.65;3.88;;;;;;;22.43;48.18;100101.94;5091715;28;20044;-65
2023/06/15 00:47:41;;;;;;;7.30;3.97;;;;;;;22.42;47.88;100105.69;5091938;28;20052;-64
2023/06/15 00:50:14;;;;;;;6.20;4.10;;;;;;;22.41;47.97;100109.41;5091579;28;20150;-64
2023/06/15 00:52:45;;;;;;;6.57;4.05;;;;;;;22.39;48.25;100108.72;5091728;28;20048;-65
2023/06/15 00:55:14;;;;;;;5.90;3.88;;;;;;;22.37;48.17;100111.59;5091725;28;20062;-64
2023/06/15 00:57:49;;;;;;;6.63;3.67;;;;;;;22.37;48.30;100113.47;5091371;28;20079;-63
2023/06/15 01:00:18;;;;;;;8.32;3.65;;;;;;;22.35;48.26;100115.53;5091578;28;20184;-65
2023/06/15 01:02:50;;;;;;;7.10;3.97;;;;;;;22.34;48.36;100108.41;5091708;28;20048;-64
2023/06/15 01:05:23;;;;;;;5.77;3.47;;;;;;;22.33;48.04;100107.56;5091468;28;20137;-64
2023/06/15 01:07:53;;;;;;;7.50;3.97;;;;;;;22.33;48.36;100106.69;5091188;28;20043;-64
2023/06/15 01:10:24;;;;;;;7.57;3.78;;;;;;;22.33;48.27;100106.69;5091383;28;20481;-64
2023/06/15 01:12:54;;;;;;;7.47;4.00;;;;;;;22.31;48.21;100100.59;5091078;28;20056;-64
2023/06/15 01:15:23;;;;;;;6.05;3.88;;;;;;;22.30;48.29;100101.63;5091367;28;20828;-64
2023/06/15 01:17:55;;;;;;;6.25;3.70;;;;;;;22.31;48.22;100097.88;5091495;28;20075;-64
2023/06/15 01:20:32;;;;;;;6.40;3.65;;;;;;;22.28;48.35;100094.47;5091443;28;20117;-64
2023/06/15 01:23:10;;;;;;;6.82;3.88;;;;;;;22.27;48.20;100087.34;5091355;28;20058;-64
2023/06/15 01:25:45;;;;;;;5.47;3.72;;;;;;;22.28;48.26;100082.75;5091415;28;20097;-64
2023/06/15 01:28:20;;;;;;;5.72;3.65;;;;;;;22.25;48.56;100086.66;5091738;28;20081;-64
2023/06/15 01:30:51;;;;;;;7.00;3.95;;;;;;;22.25;48.38;100091.25;5091256;28;20048;-64
2023/06/15 01:33:21;;;;;;;5.97;3.90;;;;;;;22.22;48.75;100092.44;5091078;28;20133;-64
2023/06/15 01:35:49;;;;;;;5.68;3.55;;;;;;;22.21;48.84;100095.34;5091350;28;20040;-64
2023/06/15 01:38:20;;;;;;;5.40;3.30;;;;;;;22.19;48.56;100100.91;5091202;28;20083;-64
2023/06/15 01:40:52;;;;;;;5.63;3.58;;;;;;;22.18;48.81;100091.06;5091341;28;20044;-64
2023/06/15 01:43:23;;;;;;;6.82;3.83;;;;;;;22.16;48.99;100100.44;5091219;28;20105;-64
2023/06/15 01:45:53;;;;;;;7.40;3.70;;;;;;;22.15;49.06;100094.16;5090942;28;20413;-64
2023/06/15 01:48:26;;;;;;;6.68;3.88;;;;;;;22.15;48.90;100098.72;5091280;28;20052;-64
2023/06/15 01:50:58;;;;;;;8.43;4.10;;;;;;;22.13;48.94;100093.47;5091362;28;20044;-63
2023/06/15 01:53:26;;;;;;;8.35;3.78;;;;;;;22.13;48.96;100096.19;5091113;28;20131;-63
2023/06/15 01:55:56;;;;;;;7.88;3.60;;;;;;;22.12;49.04;100093.66;5091038;28;20090;-63
2023/06/15 01:58:28;;;;;;;6.27;3.97;;;;;;;22.11;48.90;100098.22;5091033;28;20135;-63
2023/06/15 02:00:59;;;;;;;6.90;3.65;;;;;;;22.11;48.84;100095.53;5091188;28;20138;-63
2023/06/15 02:03:27;;;;;;;5.30;3.55;;;;;;;22.10;49.02;100096.53;5091057;28;20127;-63
2023/06/15 02:05:59;;;;;;;6.35;3.83;;;;;;;22.10;48.97;100103.81;5090980;28;20131;-63
2023/06/15 02:08:27;;;;;;;6.70;3.47;;;;;;;22.08;49.38;100103.97;5090720;28;20044;-65
2023/06/15 02:10:55;;;;;;;5.85;3.70;;;;;;;22.06;49.22;100095.13;5092142;28;20056;-63
2023/06/15 02:13:23;;;;;;;6.00;3.80;;;;;;;22.05;49.08;100104.31;5094772;28;20438;-63
2023/06/15 02:15:52;;;;;;;5.90;3.90;;;;;;;22.05;49.32;100098.88;5094750;28;20055;-62
2023/06/15 02:18:21;;;;;;;6.93;3.63;;;;;;;22.03;49.48;100100.91;5094813;28;20079;-63
2023/06/15 02:20:50;;;;;;;6.50;3.90;;;;;;;22.02;49.39;100104.66;5094611;28;20358;-64
2023/06/15 02:23:19;;;;;;;6.72;3.97;;;;;;;22.01;49.20;100113.81;5094465;28;20405;-64
2023/06/15 02:25:48;;;;;;;6.88;4.25;;;;;;;22.00;49.51;100102.09;5094652;28;20082;-64
2023/06/15 02:28:16;;;;;;;6.60;3.80;;;;;;;22.00;49.34;100112.09;5094680;28;20464;-64
2023/06/15 02:30:46;;;;;;;5.63;3.63;;;;;;;21.98;49.28;100103.28;5094446;28;20052;-64
2023/06/15 02:33:16;;;;;;;7.15;4.10;;;;;;;21.98;49.56;100114.13;5094243;28;20500;-64
2023/06/15 02:35:44;;;;;;;6.13;3.72;;;;;;;21.96;49.49;100117.03;5094241;28;20048;-64
2023/06/15 02:38:13;;;;;;;6.28;3.53;;;;;;;21.95;49.20;100115.34;5094276;28;20065;-64
2023/06/15 02:40:41;;;;;;;7.47;3.63;;;;;;;21.95;49.28;100114.47;5094422;28;20103;-64
2023/06/15 02:43:10;;;;;;;5.90;3.63;;;;;;;21.95;49.54;100103.63;5094247;28;20131;-64
2023/06/15 02:45:38;;;;;;;5.95;3.53;;;;;;;21.94;49.29;100112.78;5094126;28;20044;-64
2023/06/15 02:48:09;;;;;;;7.60;3.85;;;;;;;21.93;49.23;100111.09;5093944;28;20127;-64
2023/06/15 02:50:39;;;;;;;6.28;4.10;;;;;;;21.92;49.27;100115.69;5093840;28;20052;-64
2023/06/15 02:53:07;;;;;;;6.20;3.63;;;;;;;21.91;49.52;100107.72;5094081;28;20510;-64
2023/06/15 02:55:37;;;;;;;5.70;3.80;;;;;;;21.89;49.65;100110.56;5093962;28;20046;-64
2023/06/15 02:58:07;;;;;;;7.82;3.83;;;;;;;21.88;49.66;100110.75;5094036;28;20078;-64
2023/06/15 03:00:36;;;;;;;6.60;4.07;;;;;;;21.87;49.53;100106.31;5093925;28;20070;-64
2023/06/15 03:03:06;;;;;;;6.30;3.60;;;;;;;21.87;49.49;100100.91;5093677;28;20047;-64
2023/06/15 03:05:35;;;;;;;5.45;3.78;;;;;;;21.87;49.70;100109.03;5093589;28;20739;-64
2023/06/15 03:08:12;;;;;;;7.00;3.78;;;;;;;21.86;49.43;100104.63;5093907;28;20055;-64
2023/06/15 03:10:41;;;;;;;6.07;3.53;;;;;;;21.84;49.72;100106.69;5093746;28;20059;-64
2023/06/15 03:13:10;;;;;;;6.22;3.83;;;;;;;21.84;49.67;100106.69;5092536;28;20051;-64
2023/06/15 03:15:38;;;;;;;7.50;3.75;;;;;;;21.82;49.59;100111.44;5093354;28;20052;-64
2023/06/15 03:18:07;;;;;;;5.30;3.60;;;;;;;21.82;49.84;100119.56;5093458;28;20101;-64
2023/06/15 03:20:35;;;;;;;6.82;4.18;;;;;;;21.81;49.41;100120.56;5092404;28;20052;-64
2023/06/15 03:23:03;;;;;;;6.47;3.42;;;;;;;21.81;49.65;100121.44;5092816;28;20493;-64
2023/06/15 03:25:35;;;;;;;6.15;3.45;;;;;;;21.80;49.76;100116.16;5093275;28;20084;-63
2023/06/15 03:28:05;;;;;;;7.00;3.97;;;;;;;21.80;49.66;100121.59;5093390;28;20050;-62
2023/06/15 03:30:34;;;;;;;6.25;3.70;;;;;;;21.79;49.97;100122.59;5093242;28;20048;-64
2023/06/15 03:33:04;;;;;;;5.25;3.63;;;;;;;21.78;49.87;100120.91;5093376;28;20167;-62
2023/06/15 03:35:33;;;;;;;5.35;3.83;;;;;;;21.78;49.87;100123.63;5093314;28;20855;-64
2023/06/15 03:38:01;;;;;;;6.50;3.60;;;;;;;21.78;50.08;100118.19;5093328;28;20847;-62
2023/06/15 03:40:30;;;;;;;6.30;3.65;;;;;;;21.78;49.89;100123.63;5093118;28;20044;-64
2023/06/15 03:42:59;;;;;;;5.80;3.60;;;;;;;21.78;50.04;100123.63;5092849;28;20052;-64
2023/06/15 03:45:28;;;;;;;6.10;3.65;;;;;;;21.79;50.14;100130.75;5093097;28;20056;-64
2023/06/15 03:47:56;;;;;;;5.43;3.50;;;;;;;21.79;50.07;100130.75;5092987;28;20095;-64
2023/06/15 03:50:24;;;;;;;5.50;3.40;;;;;;;21.79;49.72;100128.03;5092944;28;20044;-64
2023/06/15 03:52:52;;;;;;;5.72;3.55;;;;;;;21.80;50.21;100132.44;5092826;28;20507;-64
2023/06/15 03:55:20;;;;;;;8.18;4.20;;;;;;;21.80;50.11;100132.44;5092410;28;20052;-64
2023/06/15 03:57:48;;;;;;;8.75;4.45;;;;;;;21.78;49.83;100129.06;5092950;28;20048;-64
2023/06/15 04:00:19;;;;;;;9.43;4.78;;;;;;;21.78;49.93;100138.03;5092712;28;20431;-64
2023/06/15 04:02:47;;;;;;;7.22;4.45;;;;;;;21.78;50.21;100129.06;5092524;28;20481;-64
2023/06/15 04:05:15;;;;;;;6.80;4.35;;;;;;;21.79;49.92;100141.59;5092544;28;20137;-64
2023/06/15 04:07:46;;;;;;;6.88;3.92;;;;;;;21.77;49.84;100139.06;5092237;28;20044;-64
2023/06/15 04:10:15;;;;;;;6.10;3.67;;;;;;;21.78;49.98;100139.91;5092639;28;20044;-64
2023/06/15 04:12:44;;;;;;;6.28;4.10;;;;;;;21.78;50.39;100140.75;5092502;28;20050;-64
2023/06/15 04:15:12;;;;;;;6.88;3.80;;;;;;;21.79;50.36;100142.44;5092393;28;20052;-64
2023/06/15 04:17:42;;;;;;;6.20;3.72;;;;;;;21.79;50.28;100141.59;5092228;28;20416;-63
2023/06/15 04:20:12;;;;;;;7.00;3.95;;;;;;;21.80;50.44;100143.31;5092369;28;20130;-63
2023/06/15 04:22:42;;;;;;;5.18;3.47;;;;;;;21.80;50.09;100132.44;5092073;28;20047;-63
2023/06/15 04:25:10;;;;;;;6.88;4.07;;;;;;;21.82;50.36;100136.72;5092265;28;20069;-63
2023/06/15 04:27:39;;;;;;;5.45;3.47;;;;;;;21.82;49.91;100138.56;5092218;28;20080;-63
2023/06/15 04:30:16;;;;;;;9.18;3.72;;;;;;;21.82;49.95;100146.72;5092238;28;20452;-63
2023/06/15 04:32:50;;;;;;;5.70;3.80;;;;;;;21.81;50.28;100140.44;5091455;28;20539;-65
2023/06/15 04:35:19;;;;;;;6.90;3.80;;;;;;;21.83;50.26;100153.84;5091661;28;20102;-64
2023/06/15 04:37:47;;;;;;;6.80;3.58;;;;;;;21.83;50.20;100148.41;5092169;28;20044;-63
2023/06/15 04:40:15;;;;;;;6.03;3.67;;;;;;;21.83;50.29;100153.84;5091891;28;20542;-63
2023/06/15 04:42:44;;;;;;;6.60;4.22;;;;;;;21.83;50.62;100153.84;5092095;28;20048;-63
2023/06/15 04:45:13;;;;;;;6.35;3.72;;;;;;;21.83;50.23;100160.13;5091828;28;20127;-63
2023/06/15 04:47:42;;;;;;;5.97;4.07;;;;;;;21.82;50.34;100158.44;5091711;28;20048;-63
2023/06/15 04:50:14;;;;;;;7.10;3.78;;;;;;;21.82;50.33;100163.88;5092100;28;20040;-64
2023/06/15 04:52:42;;;;;;;7.82;3.50;;;;;;;21.83;50.12;100162.00;5091894;28;20044;-64
2023/06/15 04:55:11;;;;;;;6.18;3.90;;;;;;;21.82;50.13;100163.00;5091686;28;20048;-64
2023/06/15 04:57:40;;;;;;;7.30;3.80;;;;;;;21.84;50.25;100160.97;5092035;28;20071;-64
2023/06/15 05:00:10;;;;;;;5.13;3.38;;;;;;;21.85;50.77;100168.09;5091684;28;20044;-64
2023/06/15 05:02:38;;;;;;;6.85;3.72;;;;;;;21.86;50.45;100164.38;5091722;28;20117;-64
2023/06/15 05:05:06;;;;;;;5.30;3.53;;;;;;;21.87;50.61;100171.50;5091474;28;20044;-63
2023/06/15 05:07:36;;;;;;;6.38;3.65;;;;;;;21.87;50.54;100172.34;5091209;28;20536;-65
2023/06/15 05:10:05;;;;;;;7.40;3.60;;;;;;;21.87;50.42;100171.50;5091233;28;20051;-65
2023/06/15 05:12:35;;;;;;;7.35;3.65;;;;;;;21.88;50.50;100168.59;5091373;28;20097;-64
2023/06/15 05:15:03;;;;;;;5.45;3.42;;;;;;;21.90;50.64;100172.00;5091281;28;20048;-65
2023/06/15 05:17:31;;;;;;;5.25;3.70;;;;;;;21.90;50.52;100169.28;5091182;28;20044;-63
2023/06/15 05:20:06;;;;;;;5.15;3.35;;;;;;;21.90;50.39;100172.00;5088223;28;20044;-64
2023/06/15 05:22:35;;;;;;;6.13;3.78;;;;;;;21.91;50.17;100178.31;5090734;28;20048;-64
2023/06/15 05:25:04;;;;;;;5.25;3.70;;;;;;;21.92;50.48;100182.72;5088686;28;20464;-65
2023/06/15 05:27:35;;;;;;;7.03;3.65;;;;;;;21.91;50.25;100184.59;5090716;28;20056;-64
2023/06/15 05:30:04;;;;;;;5.22;3.60;;;;;;;21.94;50.71;100192.38;5088784;28;20048;-64
2023/06/15 05:32:37;;;;;;;6.13;3.65;;;;;;;21.94;50.78;100194.25;5091110;28;20097;-64
2023/06/15 05:35:07;;;;;;;5.35;3.30;;;;;;;21.93;50.49;100187.97;5090395;28;20143;-64
2023/06/15 05:37:37;;;;;;;7.55;3.58;;;;;;;21.96;51.39;100186.78;5090632;28;20056;-63
2023/06/15 05:40:07;;;;;;;8.63;3.30;;;;;;;21.97;51.18;100185.75;5087790;28;20091;-63
2023/06/15 05:42:38;;;;;;;4.90;3.50;;;;;;;21.97;51.00;100183.03;5090183;28;20078;-64
2023/06/15 05:45:07;;;;;;;7.07;3.65;;;;;;;21.96;50.92;100186.78;5089492;28;20381;-63
2023/06/15 05:47:36;;;;;;;8.25;3.80;;;;;;;21.95;50.64;100194.09;5095002;28;20130;-63
2023/06/15 05:50:05;;;;;;;7.57;3.63;;;;;;;21.96;50.94;100190.34;5094992;28;20431;-64
2023/06/15 05:52:36;;;;;;;5.97;3.40;;;;;;;21.98;51.37;100199.16;5094653;28;20048;-63
2023/06/15 05:55:05;;;;;;;6.50;3.75;;;;;;;21.99;50.96;100200.00;5093545;28;20044;-63
2023/06/15 05:57:34;;;;;;;6.60;3.67;;;;;;;22.01;51.22;100200.72;5094745;28;20051;-61
2023/06/15 06:00:09;;;;;;;7.27;3.60;;;;;;;22.03;51.82;100203.28;5092432;28;20153;-62
2023/06/15 06:02:37;;;;;;;7.05;3.55;;;;;;;22.03;51.35;100193.25;5093941;28;20477;-62
2023/06/15 06:05:05;;;;;;;6.82;3.42;;;;;;;22.04;51.47;100200.38;5093924;28;20138;-63
2023/06/15 06:07:34;;;;;;;5.20;3.47;;;;;;;22.04;51.20;100194.09;5093621;28;20041;-63
2023/06/15 06:10:04;;;;;;;7.00;3.30;;;;;;;22.05;51.50;100196.66;5094141;28;20040;-62
2023/06/15 06:12:32;;;;;;;7.25;3.95;;;;;;;22.05;51.16;100196.66;5094063;28;20059;-62
2023/06/15 06:15:01;;;;;;;6.57;3.83;;;;;;;22.04;50.95;100200.38;5091591;28;20892;-62
2023/06/15 06:17:29;;;;;;;6.22;3.47;;;;;;;22.07;51.68;100200.06;5093992;28;20424;-62
2023/06/15 06:20:17;;;;;;;8.70;3.83;;;;;;;22.10;51.84;100199.75;5114036;28;20048;-62
2023/06/15 06:22:48;;;;;;;4.82;2.75;;;;;;;22.12;51.91;100202.28;5114882;28;20056;-62
2023/06/15 06:25:18;;;;;;;7.75;3.80;;;;;;;22.12;51.75;100197.72;5113661;28;20048;-65
2023/06/15 06:27:46;;;;;;;6.60;3.53;;;;;;;22.14;51.85;100195.66;5113610;28;20044;-60
2023/06/15 06:30:17;;;;;;;6.78;4.28;;;;;;;22.15;51.38;100205.50;5110332;28;20077;-62
2023/06/15 06:32:45;;;;;;;9.15;5.20;;;;;;;22.15;51.61;100202.78;5094390;28;20052;-61
2023/06/15 06:35:15;;;;;;;14.82;6.40;;;;;;;22.16;51.84;100212.66;5094175;28;20044;-62
2023/06/15 06:37:44;;;;;;;17.88;6.35;;;;;;;22.17;51.58;100198.03;5094524;28;20450;-62
2023/06/15 06:40:13;;;;;;;16.23;6.53;;;;;;;22.19;51.89;100209.59;5093837;28;20135;-62
2023/06/15 06:42:43;;;;;;;21.10;7.53;;;;;;;22.20;51.51;100202.31;5092862;28;20135;-62
2023/06/15 06:45:12;;;;;;;24.88;8.55;;;;;;;22.20;52.08;100195.00;5093719;28;20044;-62
2023/06/15 06:47:41;;;;;;;18.35;7.38;;;;;;;22.23;52.00;100194.66;5093934;28;20577;-61
2023/06/15 06:50:09;;;;;;;17.55;6.20;;;;;;;22.24;51.97;100201.78;5093958;28;20052;-62
2023/06/15 06:52:37;;;;;;;18.60;6.38;;;;;;;22.25;51.80;100203.50;5093594;28;20503;-62
2023/06/15 06:55:07;;;;;;;15.02;6.72;;;;;;;22.23;51.62;100202.81;5093706;28;20134;-62
2023/06/15 06:57:36;;;;;;;18.30;6.82;;;;;;;22.23;51.17;100205.53;5092682;28;20408;-62
2023/06/15 07:00:08;;;;;;;14.60;6.45;;;;;;;22.23;51.56;100210.97;5093800;28;20048;-62
2023/06/15 07:02:36;;;;;;;13.70;6.05;;;;;;;22.24;51.40;100200.94;5093697;28;20052;-64
2023/06/15 07:05:08;;;;;;;16.63;6.35;;;;;;;22.24;51.26;100203.66;5093267;28;20692;-61
2023/06/15 07:07:38;;;;;;;15.52;5.50;;;;;;;22.23;51.25;100197.38;5091973;28;20048;-62
2023/06/15 07:10:08;;;;;;;15.05;6.10;;;;;;;22.26;51.48;100199.75;5092242;28;20381;-62
2023/06/15 07:12:39;;;;;;;17.52;6.35;;;;;;;22.29;51.74;100198.56;5091689;28;20048;-62
2023/06/15 07:15:16;;;;;;;15.80;6.47;;;;;;;22.31;51.96;100190.25;5092392;28;20048;-62
2023/06/15 07:17:45;;;;;;;12.38;5.82;;;;;;;22.32;51.63;100192.81;5092767;28;20475;-62
2023/06/15 07:20:13;;;;;;;14.95;5.63;;;;;;;22.31;51.09;100191.09;5092917;28;20048;-62
2023/06/15 07:22:43;;;;;;;12.23;5.55;;;;;;;22.34;51.29;100196.19;5093145;28;20044;-62
2023/06/15 07:25:13;;;;;;;10.27;5.63;;;;;;;22.34;51.12;100195.34;5093160;28;20048;-62
2023/06/15 07:27:41;;;;;;;12.00;5.65;;;;;;;22.33;51.30;100190.94;5093026;28;20048;-62
2023/06/15 07:30:12;;;;;;;12.05;5.25;;;;;;;22.34;51.12;100189.91;5092981;28;20493;-62
2023/06/15 07:32:41;;;;;;;10.02;5.35;;;;;;;22.37;51.24;100181.41;5093279;28;20405;-62
2023/06/15 07:35:12;;;;;;;11.70;5.07;;;;;;;22.38;51.15;100185.81;5092958;28;20070;-62
2023/06/15 07:37:40;;;;;;;11.98;5.32;;;;;;;22.37;51.15;100181.41;5093212;28;20127;-62
2023/06/15 07:40:09;;;;;;;10.43;5.07;;;;;;;22.39;51.15;100185.69;5092680;28;20040;-62
2023/06/15 07:42:39;;;;;;;11.88;5.20;;;;;;;22.43;51.49;100183.47;5092904;28;20063;-62
2023/06/15 07:45:08;;;;;;;13.13;5.55;;;;;;;22.44;51.39;100180.56;5092699;28;20040;-62
2023/06/15 07:47:37;;;;;;;10.07;5.25;;;;;;;22.47;51.27;100179.38;5092698;28;20178;-63
2023/06/15 07:50:06;;;;;;;9.20;5.03;;;;;;;22.47;51.32;100179.38;5092740;28;20062;-62
2023/06/15 07:52:34;;;;;;;9.57;5.00;;;;;;;22.49;51.22;100174.63;5092934;28;20059;-62
2023/06/15 07:55:04;;;;;;;13.82;5.30;;;;;;;22.52;51.23;100179.72;5092633;28;20390;-62
2023/06/15 07:57:34;;;;;;;13.13;5.40;;;;;;;22.53;51.27;100178.69;5092502;28;20066;-62
2023/06/15 08:00:05;;;;;;;11.15;5.32;;;;;;;22.55;51.46;100176.66;5092520;28;20050;-62
2023/06/15 08:02:33;;;;;;;11.13;5.15;;;;;;;22.56;51.19;100172.91;5092414;28;20055;-62
2023/06/15 08:05:04;;;;;;;13.50;5.50;;;;;;;22.57;51.27;100175.44;5092471;28;20055;-62
2023/06/15 08:07:32;;;;;;;10.13;5.10;;;;;;;22.59;51.39;100172.59;5090965;28;20490;-61
2023/06/15 08:10:00;;;;;;;11.10;5.50;;;;;;;22.60;51.36;100171.56;5092478;28;20135;-61
2023/06/15 08:12:29;;;;;;;10.02;4.55;;;;;;;22.61;51.32;100175.97;5092189;28;20163;-61
2023/06/15 08:14:58;;;;;;;10.38;4.95;;;;;;;22.62;51.23;100174.94;5092518;28;20052;-62
2023/06/15 08:17:27;;;;;;;10.02;4.88;;;;;;;22.63;51.00;100173.06;5092267;28;20052;-62
2023/06/15 08:19:55;;;;;;;10.90;5.05;;;;;;;22.64;50.97;100175.63;5092369;28;20044;-62
2023/06/15 08:22:24;;;;;;;10.52;5.30;;;;;;;22.69;50.89;100175.97;5092127;28;20512;-62
2023/06/15 08:24:53;;;;;;;10.15;5.15;;;;;;;22.70;50.97;100174.94;5092018;28;20101;-63
2023/06/15 08:27:21;;;;;;;8.15;4.70;;;;;;;22.71;50.76;100163.03;5091731;28;20110;-62
2023/06/15 08:29:49;;;;;;;9.30;4.90;;;;;;;22.71;50.72;100165.75;5124642;27;20084;-62
2023/06/15 08:32:20;;;;;;;9.25;4.88;;;;;;;22.74;50.58;100170.84;5091227;28;20048;-62
2023/06/15 08:34:49;;;;;;;7.97;4.57;;;;;;;22.75;50.72;100167.09;5091666;28;20101;-62
2023/06/15 08:37:17;;;;;;;9.25;4.75;;;;;;;22.77;50.69;100166.91;5091858;28;20089;-63
2023/06/15 08:39:46;;;;;;;8.60;4.32;;;;;;;22.78;50.29;100163.22;5091891;28;20538;-63
2023/06/15 08:42:20;;;;;;;9.73;4.93;;;;;;;22.78;50.05;100169.50;5091981;28;20112;-63
2023/06/15 08:44:51;;;;;;;9.88;4.50;;;;;;;22.77;49.65;100169.66;5091772;28;20044;-63
2023/06/15 08:47:19;;;;;;;9.55;4.38;;;;;;;22.76;49.62;100163.34;5091839;28;20075;-63
2023/06/15 08:49:49;;;;;;;8.02;4.43;;;;;;;22.78;49.79;100165.94;5124400;27;20105;-62
2023/06/15 08:52:20;;;;;;;9.63;4.32;;;;;;;22.80;49.68;100170.16;5091491;28;20135;-62
2023/06/15 08:54:52;;;;;;;11.43;4.93;;;;;;;22.82;50.19;100168.13;5091841;28;20048;-62
2023/06/15 08:57:21;;;;;;;8.90;4.32;;;;;;;22.84;50.18;100165.25;5091575;28;20044;-61
2023/06/15 08:59:50;;;;;;;8.82;4.45;;;;;;;22.87;50.20;100166.75;5091551;28;20409;-62
2023/06/15 09:02:21;;;;;;;8.05;4.30;;;;;;;22.87;50.15;100164.91;5091604;28;20090;-62
2023/06/15 09:04:50;;;;;;;10.68;4.75;;;;;;;22.90;49.68;100164.56;5091315;28;20044;-62
2023/06/15 09:07:20;;;;;;;8.05;4.78;;;;;;;22.91;48.93;100165.41;5091810;28;20054;-62
2023/06/15 09:10:13;;;;;;;8.35;4.43;;;;;;;22.91;48.27;100160.81;5091109;28;20051;-62
2023/06/15 09:12:43;;;;;;;9.95;4.10;;;;;;;22.90;47.23;100163.72;5091274;28;20077;-62
2023/06/15 09:15:17;;;;;;;7.85;4.30;;;;;;;22.92;47.30;100156.22;5091138;28;20047;-62
2023/06/15 09:17:47;;;;;;;7.70;4.30;;;;;;;22.92;47.42;100150.78;5090279;28;20144;-62
2023/06/15 09:20:16;;;;;;;7.80;4.40;;;;;;;22.94;47.44;100162.34;5091052;28;20040;-62
2023/06/15 09:22:47;;;;;;;7.75;4.20;;;;;;;22.95;47.37;100154.00;5091138;28;20058;-62
2023/06/15 09:25:20;;;;;;;9.60;4.20;;;;;;;22.96;47.76;100160.28;5091154;28;20048;-62
2023/06/15 09:27:55;;;;;;;7.07;4.35;;;;;;;22.99;47.95;100157.25;5091139;28;20044;-62
2023/06/15 09:30:29;;;;;;;7.43;4.30;;;;;;;22.98;46.49;100155.53;5091238;28;20045;-62
2023/06/15 09:33:11;;;;;;;6.15;3.85;;;;;;;22.99;46.51;100149.94;5091184;28;20044;-61
2023/06/15 09:35:56;;;;;;;8.02;4.35;;;;;;;23.00;46.78;100148.91;5091343;28;20143;-62
2023/06/15 09:38:29;;;;;;;9.18;4.22;;;;;;;23.00;45.95;100151.63;5090832;28;20047;-62
2023/06/15 09:41:03;;;;;;;8.15;4.40;;;;;;;23.02;46.26;100149.56;5091079;28;20489;-63
2023/06/15 09:43:33;;;;;;;7.43;4.10;;;;;;;23.05;46.59;100151.06;5091413;28;20048;-63
2023/06/15 09:46:11;;;;;;;8.77;3.97;;;;;;;23.07;47.30;100141.75;5091286;28;20044;-63
2023/06/15 09:48:44;;;;;;;7.15;3.90;;;;;;;23.09;46.76;100136.13;5090856;28;20040;-63
2023/06/15 09:51:12;;;;;;;6.82;3.92;;;;;;;23.11;46.86;100145.78;5091050;28;20044;-63
2023/06/15 09:53:42;;;;;;;5.95;3.90;;;;;;;23.13;47.51;100132.84;5090782;28;20074;-63
2023/06/15 09:56:12;;;;;;;5.72;3.47;;;;;;;23.16;48.17;100131.66;5090924;28;20059;-63
2023/06/15 09:58:57;;;;;;;6.55;4.22;;;;;;;23.18;48.31;100129.63;5090804;28;20044;-63
2023/06/15 10:01:27;;;;;;;9.75;3.88;;;;;;;23.20;48.51;100124.84;5091114;28;20401;-64
2023/06/15 10:03:57;;;;;;;7.25;3.78;;;;;;;23.22;48.29;100128.22;5090572;28;20079;-63
2023/06/15 10:06:27;;;;;;;6.20;3.47;;;;;;;23.25;48.16;100130.59;5090615;28;20623;-63
2023/06/15 10:09:00;;;;;;;5.65;4.03;;;;;;;23.26;46.35;100121.44;5090734;28;20147;-63
2023/06/15 10:11:30;;;;;;;;;;;;;;;23.28;45.80;100121.25;5091036;28;20052;-62
2023/06/15 10:14:06;;;;;;;5.63;3.53;;;;;;;23.29;45.71;100123.78;5089355;28;19949;-64
2023/06/15 10:16:35;;;;;;;6.72;4.05;;;;;;;23.31;45.32;100121.72;5090800;28;20184;-62
2023/06/15 10:19:10;;;;;;;6.25;3.90;;;;;;;23.34;45.38;100129.53;5090379;28;20048;-63
2023/06/15 10:21:43;;;;;;;8.10;4.20;;;;;;;23.36;46.54;100124.78;5090348;28;20389;-62
2023/06/15 10:24:14;;;;;;;5.88;3.67;;;;;;;23.39;47.07;100126.28;5090335;28;20465;-62
2023/06/15 10:26:44;;;;;;;7.75;3.83;;;;;;;23.41;46.11;100122.34;5090403;28;20048;-62
2023/06/15 10:29:21;;;;;;;6.40;3.40;;;;;;;23.43;45.24;100117.56;5090701;28;20056;-63
2023/06/15 10:31:59;;;;;;;6.68;3.55;;;;;;;23.45;43.74;100121.97;5091804;28;20440;-64
2023/06/15 10:34:33;;;;;;;6.00;3.40;;;;;;;23.44;42.22;100112.97;5094322;28;20048;-63
2023/06/15 10:37:11;;;;;;;7.05;3.80;;;;;;;23.48;42.67;100118.94;5094276;28;20052;-63
2023/06/15 10:39:44;;;;;;;8.02;4.20;;;;;;;23.49;42.95;100124.19;5093898;28;20054;-63
2023/06/15 10:42:14;;;;;;;7.55;4.10;;;;;;;23.51;43.62;100118.56;5094117;28;20072;-63
2023/06/15 10:44:42;;;;;;;6.57;3.80;;;;;;;23.52;42.87;100120.25;5094018;28;20076;-63
2023/06/15 10:47:12;;;;;;;5.63;3.58;;;;;;;23.53;42.72;100114.63;5093863;28;20094;-63
2023/06/15 10:49:49;;;;;;;5.93;3.47;;;;;;;23.55;43.97;100114.47;5093950;28;20087;-61
2023/06/15 10:52:18;;;;;;;6.28;3.75;;;;;;;23.56;44.42;100110.72;5094055;28;20070;-63
2023/06/15 10:54:47;;;;;;;7.88;4.20;;;;;;;23.58;44.28;100119.56;5094042;28;20055;-62
2023/06/15 10:57:17;;;;;;;6.55;3.97;;;;;;;23.57;43.20;100115.97;5093682;28;20044;-63
2023/06/15 10:59:49;;;;;;;6.35;3.80;;;;;;;23.59;42.74;100110.38;5093665;28;20048;-62
2023/06/15 11:02:58;;;;;;;6.60;3.70;;;;;;;23.61;42.35;100105.59;5093893;28;20083;-62
2023/06/15 11:05:43;;;;;;;7.20;4.10;;;;;;;23.63;42.76;100108.97;5050661;28;20041;-63
2023/06/15 11:08:18;;;;;;;6.47;3.60;;;;;;;23.64;43.20;100099.78;5091097;28;20052;-63
2023/06/15 11:10:46;;;;;;;5.88;3.78;;;;;;;23.67;44.41;100099.44;5093674;28;20055;-63
2023/06/15 11:13:25;;;;;;;6.20;3.67;;;;;;;23.69;44.24;100100.09;5093531;28;20044;-62
2023/06/15 11:16:07;;;;;;;6.68;3.75;;;;;;;23.69;44.65;100092.78;5093269;28;20457;-62
2023/06/15 11:18:37;;;;;;;6.32;3.88;;;;;;;23.74;44.53;100105.00;5093290;28;20056;-62
2023/06/15 11:21:09;;;;;;;6.05;3.40;;;;;;;23.75;44.68;100095.81;5093575;28;20044;-62
2023/06/15 11:23:37;;;;;;;6.55;3.88;;;;;;;23.76;45.15;100101.09;5093518;28;20471;-63
2023/06/15 11:26:05;;;;;;;7.93;4.22;;;;;;;23.78;45.56;100100.91;5093476;28;20108;-63
2023/06/15 11:28:35;;;;;;;6.45;3.70;;;;;;;23.78;44.99;100101.75;5093418;28;20139;-63
2023/06/15 11:31:07;;;;;;;5.47;3.70;;;;;;;23.80;43.97;100104.28;5093261;28;20055;-63
2023/06/15 11:33:39;;;;;;;7.25;4.00;;;;;;;23.81;43.48;100109.53;5093357;28;20048;-63
2023/06/15 11:36:09;;;;;;;6.80;3.90;;;;;;;23.82;42.85;100105.78;5093141;28;20492;-63
2023/06/15 11:38:38;;;;;;;5.07;3.40;;;;;;;23.83;41.59;100104.75;5093123;28;20093;-63